Terminal Aerodrome Forecast
Issued by NWS

Home | Current Version | Previous Version | Text Only | Print | Product List | Glossary On
Versions: 1 2 3 4 5 6 7 8 9 10 11 12 13 14 15 16 17 18 19 20 21 22 23 24 25 26
000
FTAK31 PANC 201402 AAA
TAFADU
TAF AMD
PADU 201402Z 2014/2112 09014G22KT P6SM -RA OVC013
      TEMPO 2014/2018 5SM RA BR
     FM202200 13008KT P6SM -SHRA SCT010 BKN025
     FM210600 14005KT 6SM BR BKN015=

USA.gov is the U.S. government's official web portal to all federal, state and local government web resources and services.